sensor_id;sensor_type;location;lat;lon;timestamp;pressure;altitude;pressure_sealevel;temperature;humidity
24031;BME280;12240;51.142;22.486;2022-08-03T00:02:18;99634.31;;;18.08;100.00
24031;BME280;12240;51.142;22.486;2022-08-03T00:04:46;99633.69;;;18.06;100.00
24031;BME280;12240;51.142;22.486;2022-08-03T00:07:14;99623.75;;;18.06;100.00
24031;BME280;12240;51.142;22.486;2022-08-03T00:09:43;99633.13;;;17.89;100.00
24031;BME280;12240;51.142;22.486;2022-08-03T00:12:11;99637.09;;;17.93;100.00
24031;BME280;12240;51.142;22.486;2022-08-03T00:14:40;99636.22;;;17.86;100.00
24031;BME280;12240;51.142;22.486;2022-08-03T00:17:08;99633.13;;;17.89;100.00
24031;BME280;12240;51.142;22.486;2022-08-03T00:19:36;99636.97;;;18.01;100.00
24031;BME280;12240;51.142;22.486;2022-08-03T00:22:04;99620.81;;;17.80;100.00
24031;BME280;12240;51.142;22.486;2022-08-03T00:24:32;99635.31;;;17.79;100.00
24031;BME280;12240;51.142;22.486;2022-08-03T00:27:03;99637.88;;;17.66;100.00
24031;BME280;12240;51.142;22.486;2022-08-03T00:29:31;99644.66;;;17.62;100.00
24031;BME280;12240;51.142;22.486;2022-08-03T00:32:19;99641.38;;;17.67;100.00
24031;BME280;12240;51.142;22.486;2022-08-03T00:34:51;99621.88;;;17.65;100.00
24031;BME280;12240;51.142;22.486;2022-08-03T00:37:25;99647.75;;;17.80;100.00
24031;BME280;12240;51.142;22.486;2022-08-03T00:40:13;99634.81;;;17.90;100.00
24031;BME280;12240;51.142;22.486;2022-08-03T00:42:53;99640.09;;;17.84;100.00
24031;BME280;12240;51.142;22.486;2022-08-03T00:45:25;99597.03;;;17.63;100.00
24031;BME280;12240;51.142;22.486;2022-08-03T00:47:53;99638.06;;;17.86;100.00
24031;BME280;12240;51.142;22.486;2022-08-03T00:50:23;99633.97;;;17.90;100.00
24031;BME280;12240;51.142;22.486;2022-08-03T00:52:55;99645.44;;;17.98;100.00
24031;BME280;12240;51.142;22.486;2022-08-03T00:55:24;99576.63;;;17.54;100.00
24031;BME280;12240;51.142;22.486;2022-08-03T00:57:52;99611.25;;;17.78;100.00
24031;BME280;12240;51.142;22.486;2022-08-03T01:00:26;99645.25;;;18.00;100.00
24031;BME280;12240;51.142;22.486;2022-08-03T01:02:55;99644.03;;;18.02;100.00
24031;BME280;12240;51.142;22.486;2022-08-03T01:05:23;99648.84;;;18.07;100.00
24031;BME280;12240;51.142;22.486;2022-08-03T01:08:09;99644.28;;;18.07;100.00
24031;BME280;12240;51.142;22.486;2022-08-03T01:17:01;99638.22;;;17.99;100.00
24031;BME280;12240;51.142;22.486;2022-08-03T01:23:15;99630.75;;;18.01;100.00
24031;BME280;12240;51.142;22.486;2022-08-03T01:26:41;99634.91;;;18.03;100.00
24031;BME280;12240;51.142;22.486;2022-08-03T01:30:02;99641.50;;;18.01;100.00
24031;BME280;12240;51.142;22.486;2022-08-03T01:32:57;99583.44;;;17.71;100.00
24031;BME280;12240;51.142;22.486;2022-08-03T01:35:42;99645.94;;;18.08;100.00
24031;BME280;12240;51.142;22.486;2022-08-03T01:38:24;99649.84;;;18.06;100.00
24031;BME280;12240;51.142;22.486;2022-08-03T01:40:55;99628.81;;;17.95;100.00
24031;BME280;12240;51.142;22.486;2022-08-03T01:43:26;99640.25;;;17.97;100.00
24031;BME280;12240;51.142;22.486;2022-08-03T01:46:17;99644.22;;;18.01;100.00
24031;BME280;12240;51.142;22.486;2022-08-03T01:48:48;99601.19;;;17.65;100.00
24031;BME280;12240;51.142;22.486;2022-08-03T01:51:19;99604.34;;;17.69;100.00
24031;BME280;12240;51.142;22.486;2022-08-03T01:53:49;99600.63;;;17.70;100.00
24031;BME280;12240;51.142;22.486;2022-08-03T01:56:21;99599.53;;;17.64;100.00
24031;BME280;12240;51.142;22.486;2022-08-03T01:58:52;99645.50;;;17.84;100.00
24031;BME280;12240;51.142;22.486;2022-08-03T02:01:21;99647.25;;;17.91;100.00
24031;BME280;12240;51.142;22.486;2022-08-03T02:03:51;99644.03;;;17.81;100.00
24031;BME280;12240;51.142;22.486;2022-08-03T02:06:30;99637.66;;;17.89;100.00
24031;BME280;12240;51.142;22.486;2022-08-03T02:09:21;99639.75;;;17.87;100.00
24031;BME280;12240;51.142;22.486;2022-08-03T02:11:51;99601.97;;;17.59;100.00
24031;BME280;12240;51.142;22.486;2022-08-03T02:14:21;99639.66;;;17.80;100.00
24031;BME280;12240;51.142;22.486;2022-08-03T02:16:51;99590.03;;;17.47;100.00
24031;BME280;12240;51.142;22.486;2022-08-03T02:19:20;99628.97;;;17.66;100.00
24031;BME280;12240;51.142;22.486;2022-08-03T02:21:50;99619.13;;;17.58;100.00
24031;BME280;12240;51.142;22.486;2022-08-03T02:24:24;99616.13;;;17.47;100.00
24031;BME280;12240;51.142;22.486;2022-08-03T02:26:55;99641.00;;;17.49;100.00
24031;BME280;12240;51.142;22.486;2022-08-03T02:29:27;99632.44;;;17.45;100.00
24031;BME280;12240;51.142;22.486;2022-08-03T02:32:16;99636.06;;;17.52;100.00
24031;BME280;12240;51.142;22.486;2022-08-03T02:34:49;99643.56;;;17.57;100.00
24031;BME280;12240;51.142;22.486;2022-08-03T02:37:19;99654.13;;;17.58;100.00
24031;BME280;12240;51.142;22.486;2022-08-03T02:39:48;99632.34;;;17.53;100.00
24031;BME280;12240;51.142;22.486;2022-08-03T02:42:21;99647.75;;;17.59;100.00
24031;BME280;12240;51.142;22.486;2022-08-03T02:44:50;99642.97;;;17.61;100.00
24031;BME280;12240;51.142;22.486;2022-08-03T02:47:20;99598.38;;;17.37;100.00
24031;BME280;12240;51.142;22.486;2022-08-03T02:49:50;99579.91;;;17.34;100.00
24031;BME280;12240;51.142;22.486;2022-08-03T02:52:24;99652.97;;;17.82;100.00
24031;BME280;12240;51.142;22.486;2022-08-03T02:54:59;99610.59;;;17.55;100.00
24031;BME280;12240;51.142;22.486;2022-08-03T02:57:30;99648.13;;;17.77;100.00
24031;BME280;12240;51.142;22.486;2022-08-03T03:00:03;99627.00;;;17.60;100.00
24031;BME280;12240;51.142;22.486;2022-08-03T03:02:32;99655.25;;;17.64;100.00
24031;BME280;12240;51.142;22.486;2022-08-03T03:05:01;99611.44;;;17.40;100.00
24031;BME280;12240;51.142;22.486;2022-08-03T03:07:50;99655.25;;;17.64;100.00
24031;BME280;12240;51.142;22.486;2022-08-03T03:10:22;99623.72;;;17.58;100.00
24031;BME280;12240;51.142;22.486;2022-08-03T03:12:55;99608.88;;;17.47;100.00
24031;BME280;12240;51.142;22.486;2022-08-03T03:15:26;99649.63;;;17.80;100.00
24031;BME280;12240;51.142;22.486;2022-08-03T03:17:54;99622.53;;;17.67;100.00
24031;BME280;12240;51.142;22.486;2022-08-03T03:20:24;99586.94;;;17.50;100.00
24031;BME280;12240;51.142;22.486;2022-08-03T03:23:00;99622.19;;;17.70;100.00
24031;BME280;12240;51.142;22.486;2022-08-03T03:25:32;99660.78;;;17.98;100.00
24031;BME280;12240;51.142;22.486;2022-08-03T03:28:02;99657.63;;;17.94;100.00
24031;BME280;12240;51.142;22.486;2022-08-03T03:30:33;99624.72;;;17.78;100.00
24031;BME280;12240;51.142;22.486;2022-08-03T03:33:02;99653.72;;;17.97;100.00
24031;BME280;12240;51.142;22.486;2022-08-03T03:35:30;99659.38;;;18.02;100.00
24031;BME280;12240;51.142;22.486;2022-08-03T03:38:06;99665.00;;;18.07;100.00
24031;BME280;12240;51.142;22.486;2022-08-03T03:40:37;99661.41;;;18.00;100.00
24031;BME280;12240;51.142;22.486;2022-08-03T03:43:10;99666.66;;;18.08;100.00
24031;BME280;12240;51.142;22.486;2022-08-03T03:45:41;99631.47;;;17.88;100.00
24031;BME280;12240;51.142;22.486;2022-08-03T03:48:10;99666.91;;;18.13;100.00
24031;BME280;12240;51.142;22.486;2022-08-03T03:50:38;99633.56;;;17.93;100.00
24031;BME280;12240;51.142;22.486;2022-08-03T03:53:12;99658.56;;;18.08;100.00
24031;BME280;12240;51.142;22.486;2022-08-03T03:55:42;99660.91;;;18.11;100.00
24031;BME280;12240;51.142;22.486;2022-08-03T03:58:31;99677.94;;;18.18;100.00
24031;BME280;12240;51.142;22.486;2022-08-03T04:01:00;99685.66;;;18.21;100.00
24031;BME280;12240;51.142;22.486;2022-08-03T04:03:29;99652.53;;;18.06;100.00
24031;BME280;12240;51.142;22.486;2022-08-03T04:05:57;99639.53;;;18.09;100.00
24031;BME280;12240;51.142;22.486;2022-08-03T04:08:44;99664.66;;;18.37;100.00
24031;BME280;12240;51.142;22.486;2022-08-03T04:11:53;99665.56;;;18.44;100.00
24031;BME280;12240;51.142;22.486;2022-08-03T04:14:34;99671.13;;;18.64;100.00
24031;BME280;12240;51.142;22.486;2022-08-03T04:17:04;99683.41;;;18.73;100.00
24031;BME280;12240;51.142;22.486;2022-08-03T04:19:45;99689.31;;;18.83;100.00
24031;BME280;12240;51.142;22.486;2022-08-03T04:22:21;99671.25;;;18.84;100.00
24031;BME280;12240;51.142;22.486;2022-08-03T04:25:04;99652.78;;;18.87;100.00
24031;BME280;12240;51.142;22.486;2022-08-03T04:27:37;99662.00;;;18.99;100.00
24031;BME280;12240;51.142;22.486;2022-08-03T04:30:08;99691.63;;;19.27;100.00
24031;BME280;12240;51.142;22.486;2022-08-03T04:32:38;99695.28;;;19.47;100.00
24031;BME280;12240;51.142;22.486;2022-08-03T04:35:12;99694.09;;;19.62;100.00
24031;BME280;12240;51.142;22.486;2022-08-03T04:37:51;99670.00;;;19.67;100.00
24031;BME280;12240;51.142;22.486;2022-08-03T04:40:29;99639.25;;;19.62;100.00
24031;BME280;12240;51.142;22.486;2022-08-03T04:42:58;99703.56;;;20.06;100.00
24031;BME280;12240;51.142;22.486;2022-08-03T04:45:27;99706.91;;;20.01;100.00
24031;BME280;12240;51.142;22.486;2022-08-03T04:47:57;99665.66;;;19.80;100.00
24031;BME280;12240;51.142;22.486;2022-08-03T04:50:29;99707.31;;;19.98;100.00
24031;BME280;12240;51.142;22.486;2022-08-03T04:53:05;99698.53;;;19.83;100.00
24031;BME280;12240;51.142;22.486;2022-08-03T04:55:34;99713.78;;;20.10;100.00
24031;BME280;12240;51.142;22.486;2022-08-03T04:58:04;99716.88;;;20.07;100.00
24031;BME280;12240;51.142;22.486;2022-08-03T05:00:33;99720.22;;;20.09;100.00
24031;BME280;12240;51.142;22.486;2022-08-03T05:03:01;99720.06;;;20.17;100.00
24031;BME280;12240;51.142;22.486;2022-08-03T05:05:29;99690.25;;;19.98;100.00
24031;BME280;12240;51.142;22.486;2022-08-03T05:08:17;99669.84;;;19.89;100.00
24031;BME280;12240;51.142;22.486;2022-08-03T05:10:56;99707.75;;;20.02;100.00
24031;BME280;12240;51.142;22.486;2022-08-03T05:13:26;99718.94;;;19.99;100.00
24031;BME280;12240;51.142;22.486;2022-08-03T05:15:54;99716.84;;;19.88;100.00
24031;BME280;12240;51.142;22.486;2022-08-03T05:18:22;99687.06;;;19.68;100.00
24031;BME280;12240;51.142;22.486;2022-08-03T05:20:50;99720.38;;;19.88;100.00
24031;BME280;12240;51.142;22.486;2022-08-03T05:23:18;99718.25;;;19.77;100.00
24031;BME280;12240;51.142;22.486;2022-08-03T05:25:47;99729.16;;;19.97;100.00
24031;BME280;12240;51.142;22.486;2022-08-03T05:28:17;99682.13;;;19.85;100.00
24031;BME280;12240;51.142;22.486;2022-08-03T05:30:45;99725.72;;;20.55;100.00
24031;BME280;12240;51.142;22.486;2022-08-03T05:33:13;99685.97;;;20.68;100.00
24031;BME280;12240;51.142;22.486;2022-08-03T05:35:42;99720.50;;;21.06;100.00
24031;BME280;12240;51.142;22.486;2022-08-03T05:38:31;99714.88;;;21.01;100.00
24031;BME280;12240;51.142;22.486;2022-08-03T05:41:03;99715.72;;;21.08;100.00
24031;BME280;12240;51.142;22.486;2022-08-03T05:43:52;99683.66;;;20.98;100.00
24031;BME280;12240;51.142;22.486;2022-08-03T05:46:23;99728.28;;;21.59;100.00
24031;BME280;12240;51.142;22.486;2022-08-03T05:48:51;99716.34;;;22.11;100.00
24031;BME280;12240;51.142;22.486;2022-08-03T05:51:20;99691.38;;;22.34;100.00
24031;BME280;12240;51.142;22.486;2022-08-03T05:53:48;99736.59;;;22.95;100.00
24031;BME280;12240;51.142;22.486;2022-08-03T05:56:21;99732.63;;;23.41;100.00
24031;BME280;12240;51.142;22.486;2022-08-03T05:58:50;99729.81;;;23.29;100.00
24031;BME280;12240;51.142;22.486;2022-08-03T06:01:20;99704.75;;;23.45;100.00
24031;BME280;12240;51.142;22.486;2022-08-03T06:03:49;99694.72;;;23.46;100.00
24031;BME280;12240;51.142;22.486;2022-08-03T06:06:18;99737.63;;;23.91;100.00
24031;BME280;12240;51.142;22.486;2022-08-03T06:08:47;99741.09;;;23.98;100.00
24031;BME280;12240;51.142;22.486;2022-08-03T06:11:15;99738.34;;;24.16;100.00
24031;BME280;12240;51.142;22.486;2022-08-03T06:13:43;99741.56;;;24.25;100.00
24031;BME280;12240;51.142;22.486;2022-08-03T06:16:12;99742.38;;;24.44;100.00
24031;BME280;12240;51.142;22.486;2022-08-03T06:18:40;99735.91;;;24.68;100.00
24031;BME280;12240;51.142;22.486;2022-08-03T06:21:09;99719.09;;;24.18;100.00
24031;BME280;12240;51.142;22.486;2022-08-03T06:23:44;99746.09;;;24.01;100.00
24031;BME280;12240;51.142;22.486;2022-08-03T06:26:26;99748.41;;;23.50;100.00
24031;BME280;12240;51.142;22.486;2022-08-03T06:28:55;99757.09;;;23.41;100.00
24031;BME280;12240;51.142;22.486;2022-08-03T06:31:25;99747.09;;;23.10;100.00
24031;BME280;12240;51.142;22.486;2022-08-03T06:34:03;99751.78;;;23.03;100.00
24031;BME280;12240;51.142;22.486;2022-08-03T06:36:51;99742.91;;;22.89;100.00
24031;BME280;12240;51.142;22.486;2022-08-03T06:39:28;99747.78;;;22.81;100.00
24031;BME280;12240;51.142;22.486;2022-08-03T06:41:56;99737.50;;;22.65;100.00
24031;BME280;12240;51.142;22.486;2022-08-03T06:44:24;99746.78;;;22.75;100.00
24031;BME280;12240;51.142;22.486;2022-08-03T06:46:52;99709.34;;;22.59;100.00
24031;BME280;12240;51.142;22.486;2022-08-03T06:49:22;99740.03;;;22.84;100.00
24031;BME280;12240;51.142;22.486;2022-08-03T06:51:51;99744.16;;;23.11;100.00
24031;BME280;12240;51.142;22.486;2022-08-03T06:54:33;99700.97;;;23.46;100.00
24031;BME280;12240;51.142;22.486;2022-08-03T06:57:01;99699.00;;;23.53;100.00
24031;BME280;12240;51.142;22.486;2022-08-03T06:59:29;99741.56;;;24.25;100.00
24031;BME280;12240;51.142;22.486;2022-08-03T07:02:17;99732.78;;;24.53;100.00
24031;BME280;12240;51.142;22.486;2022-08-03T07:04:47;99746.25;;;25.12;100.00
24031;BME280;12240;51.142;22.486;2022-08-03T07:07:15;99733.94;;;25.21;100.00
24031;BME280;12240;51.142;22.486;2022-08-03T07:09:44;99712.59;;;25.06;97.95
24031;BME280;12240;51.142;22.486;2022-08-03T07:12:25;99731.75;;;25.69;90.26
24031;BME280;12240;51.142;22.486;2022-08-03T07:14:55;99723.47;;;25.64;88.69
24031;BME280;12240;51.142;22.486;2022-08-03T07:17:30;99736.53;;;25.62;83.17
24031;BME280;12240;51.142;22.486;2022-08-03T07:20:00;99710.28;;;25.73;81.61
24031;BME280;12240;51.142;22.486;2022-08-03T07:22:30;99735.72;;;26.29;75.88
24031;BME280;12240;51.142;22.486;2022-08-03T07:24:59;99728.13;;;26.03;73.46
24031;BME280;12240;51.142;22.486;2022-08-03T07:27:29;99734.00;;;26.57;73.15
24031;BME280;12240;51.142;22.486;2022-08-03T07:29:58;99737.47;;;26.52;71.29
24031;BME280;12240;51.142;22.486;2022-08-03T07:32:27;99733.59;;;26.65;69.05
24031;BME280;12240;51.142;22.486;2022-08-03T07:34:58;99741.34;;;26.84;69.56
24031;BME280;12240;51.142;22.486;2022-08-03T07:37:29;99730.84;;;26.65;69.92
24031;BME280;12240;51.142;22.486;2022-08-03T07:39:59;99746.47;;;26.81;72.09
24031;BME280;12240;51.142;22.486;2022-08-03T07:42:29;99677.88;;;26.32;67.94
24031;BME280;12240;51.142;22.486;2022-08-03T07:44:58;99737.19;;;27.75;65.92
24031;BME280;12240;51.142;22.486;2022-08-03T07:47:29;99745.94;;;28.68;63.59
24031;BME280;12240;51.142;22.486;2022-08-03T07:50:05;99745.94;;;28.68;63.11
24031;BME280;12240;51.142;22.486;2022-08-03T07:52:35;99746.81;;;28.47;61.65
24031;BME280;12240;51.142;22.486;2022-08-03T07:55:22;99735.50;;;28.65;60.31
24031;BME280;12240;51.142;22.486;2022-08-03T07:58:11;99751.53;;;29.10;59.93
24031;BME280;12240;51.142;22.486;2022-08-03T08:00:49;99742.28;;;29.26;60.77
24031;BME280;12240;51.142;22.486;2022-08-03T08:03:20;99740.47;;;29.41;59.74
24031;BME280;12240;51.142;22.486;2022-08-03T08:05:49;99745.94;;;29.00;66.25
24031;BME280;12240;51.142;22.486;2022-08-03T08:08:17;99747.94;;;29.51;60.66
24031;BME280;12240;51.142;22.486;2022-08-03T08:10:46;99746.88;;;29.15;58.41
24031;BME280;12240;51.142;22.486;2022-08-03T08:13:25;99713.44;;;29.13;60.19
24031;BME280;12240;51.142;22.486;2022-08-03T08:15:53;99754.13;;;29.78;58.75
24031;BME280;12240;51.142;22.486;2022-08-03T08:18:21;99727.84;;;29.92;57.86
24031;BME280;12240;51.142;22.486;2022-08-03T08:20:51;99745.28;;;30.28;55.91
24031;BME280;12240;51.142;22.486;2022-08-03T08:23:19;99750.72;;;29.14;59.90
24031;BME280;12240;51.142;22.486;2022-08-03T08:26:10;99726.75;;;29.93;57.73
24031;BME280;12240;51.142;22.486;2022-08-03T08:28:38;99729.84;;;29.60;58.29
24031;BME280;12240;51.142;22.486;2022-08-03T08:31:07;99746.31;;;30.17;56.66
24031;BME280;12240;51.142;22.486;2022-08-03T08:33:35;99720.22;;;30.09;56.40
24031;BME280;12240;51.142;22.486;2022-08-03T08:36:24;99750.00;;;30.42;56.89
24031;BME280;12240;51.142;22.486;2022-08-03T08:38:52;99738.16;;;30.72;57.48
24031;BME280;12240;51.142;22.486;2022-08-03T08:41:20;99725.81;;;30.95;58.57
24031;BME280;12240;51.142;22.486;2022-08-03T08:43:48;99746.63;;;31.71;57.51
24031;BME280;12240;51.142;22.486;2022-08-03T08:46:17;99750.56;;;30.64;54.90
24031;BME280;12240;51.142;22.486;2022-08-03T08:48:52;99640.94;;;29.04;56.61
24031;BME280;12240;51.142;22.486;2022-08-03T08:51:22;99703.47;;;30.21;56.31
24031;BME280;12240;51.142;22.486;2022-08-03T08:54:14;99737.41;;;30.81;56.48
24031;BME280;12240;51.142;22.486;2022-08-03T08:56:44;99743.38;;;31.49;55.64
24031;BME280;12240;51.142;22.486;2022-08-03T08:59:12;99747.03;;;32.03;55.89
24031;BME280;12240;51.142;22.486;2022-08-03T09:01:41;99738.16;;;32.21;52.40
24031;BME280;12240;51.142;22.486;2022-08-03T09:04:11;99738.47;;;32.58;52.38
24031;BME280;12240;51.142;22.486;2022-08-03T09:06:39;99714.75;;;33.25;51.48
24031;BME280;12240;51.142;22.486;2022-08-03T09:09:07;99691.75;;;32.72;49.43
24031;BME280;12240;51.142;22.486;2022-08-03T09:11:55;99745.00;;;33.82;51.40
24031;BME280;12240;51.142;22.486;2022-08-03T09:14:43;99748.69;;;34.75;50.29
24031;BME280;12240;51.142;22.486;2022-08-03T09:17:40;99746.25;;;34.74;47.78
24031;BME280;12240;51.142;22.486;2022-08-03T09:20:09;99740.78;;;33.89;48.91
24031;BME280;12240;51.142;22.486;2022-08-03T09:25:57;99733.72;;;33.31;49.57
24031;BME280;12240;51.142;22.486;2022-08-03T09:28:34;99721.41;;;32.90;49.61
24031;BME280;12240;51.142;22.486;2022-08-03T09:31:44;99750.72;;;31.73;48.57
24031;BME280;12240;51.142;22.486;2022-08-03T09:34:16;99745.59;;;31.47;50.61
24031;BME280;12240;51.142;22.486;2022-08-03T09:36:49;99738.72;;;31.19;50.73
24031;BME280;12240;51.142;22.486;2022-08-03T09:39:21;99737.91;;;31.09;51.35
24031;BME280;12240;51.142;22.486;2022-08-03T09:42:18;99693.38;;;30.92;51.27
24031;BME280;12240;51.142;22.486;2022-08-03T09:44:51;99734.88;;;31.20;51.92
24031;BME280;12240;51.142;22.486;2022-08-03T09:47:29;99734.06;;;31.20;56.53
24031;BME280;12240;51.142;22.486;2022-08-03T09:50:00;99741.22;;;31.21;58.49
24031;BME280;12240;51.142;22.486;2022-08-03T09:52:38;99735.69;;;31.31;56.91
24031;BME280;12240;51.142;22.486;2022-08-03T09:55:19;99733.50;;;31.18;59.47
24031;BME280;12240;51.142;22.486;2022-08-03T09:58:08;99727.44;;;31.21;57.13
24031;BME280;12240;51.142;22.486;2022-08-03T10:01:04;99725.03;;;30.94;57.10
24031;BME280;12240;51.142;22.486;2022-08-03T10:03:38;99710.28;;;31.69;52.80
24031;BME280;12240;51.142;22.486;2022-08-03T10:06:26;99676.91;;;30.81;52.61
24031;BME280;12240;51.142;22.486;2022-08-03T10:09:15;99689.13;;;31.54;53.37
24031;BME280;12240;51.142;22.486;2022-08-03T10:11:43;99726.09;;;32.07;52.61
24031;BME280;12240;51.142;22.486;2022-08-03T10:14:13;99689.56;;;31.81;52.31
24031;BME280;12240;51.142;22.486;2022-08-03T10:16:49;99720.28;;;31.30;51.09
24031;BME280;12240;51.142;22.486;2022-08-03T10:19:17;99720.50;;;31.58;52.17
24031;BME280;12240;51.142;22.486;2022-08-03T10:21:52;99710.88;;;32.20;52.56
24031;BME280;12240;51.142;22.486;2022-08-03T10:24:29;99689.00;;;32.33;52.07
24031;BME280;12240;51.142;22.486;2022-08-03T10:27:06;99668.88;;;31.89;49.10
24031;BME280;12240;51.142;22.486;2022-08-03T10:29:41;99733.59;;;31.97;49.97
24031;BME280;12240;51.142;22.486;2022-08-03T10:32:40;99716.22;;;31.96;53.27
24031;BME280;12240;51.142;22.486;2022-08-03T10:35:18;99741.97;;;31.51;52.37
24031;BME280;12240;51.142;22.486;2022-08-03T10:37:55;99742.31;;;31.25;53.17
24031;BME280;12240;51.142;22.486;2022-08-03T10:40:31;99703.00;;;31.04;54.19
24031;BME280;12240;51.142;22.486;2022-08-03T10:43:21;99698.31;;;31.05;55.66
24031;BME280;12240;51.142;22.486;2022-08-03T10:45:52;99729.91;;;31.22;57.22
24031;BME280;12240;51.142;22.486;2022-08-03T10:48:23;99737.91;;;31.39;54.91
24031;BME280;12240;51.142;22.486;2022-08-03T10:50:52;99735.41;;;31.37;56.95
24031;BME280;12240;51.142;22.486;2022-08-03T10:53:38;99733.47;;;31.48;56.35
24031;BME280;12240;51.142;22.486;2022-08-03T11:02:14;99709.69;;;31.72;54.63
24031;BME280;12240;51.142;22.486;2022-08-03T11:04:45;99736.16;;;31.68;52.83
24031;BME280;12240;51.142;22.486;2022-08-03T11:07:21;99730.94;;;31.61;56.33
24031;BME280;12240;51.142;22.486;2022-08-03T11:09:55;99742.47;;;31.68;54.02
24031;BME280;12240;51.142;22.486;2022-08-03T11:12:31;99750.25;;;31.51;57.28
24031;BME280;12240;51.142;22.486;2022-08-03T11:15:09;99703.78;;;31.30;54.22
24031;BME280;12240;51.142;22.486;2022-08-03T11:17:37;99745.59;;;31.22;53.01
24031;BME280;12240;51.142;22.486;2022-08-03T11:20:45;99744.88;;;31.95;54.26
24031;BME280;12240;51.142;22.486;2022-08-03T11:23:16;99725.09;;;32.75;50.98
24031;BME280;12240;51.142;22.486;2022-08-03T11:26:17;99729.84;;;33.56;53.25
24031;BME280;12240;51.142;22.486;2022-08-03T11:28:47;99687.66;;;33.97;49.65
24031;BME280;12240;51.142;22.486;2022-08-03T11:34:14;99691.47;;;34.89;47.31
24031;BME280;12240;51.142;22.486;2022-08-03T11:37:18;99719.81;;;34.49;47.25
24031;BME280;12240;51.142;22.486;2022-08-03T11:39:51;99719.38;;;34.74;47.63
24031;BME280;12240;51.142;22.486;2022-08-03T11:44:59;99717.09;;;33.83;47.33
24031;BME280;12240;51.142;22.486;2022-08-03T11:47:28;99722.50;;;32.55;48.92
24031;BME280;12240;51.142;22.486;2022-08-03T11:49:58;99725.69;;;31.75;50.84
24031;BME280;12240;51.142;22.486;2022-08-03T11:52:38;99725.19;;;31.48;53.69
24031;BME280;12240;51.142;22.486;2022-08-03T11:55:12;99688.69;;;31.02;54.18
24031;BME280;12240;51.142;22.486;2022-08-03T11:57:41;99725.59;;;31.95;54.82
24031;BME280;12240;51.142;22.486;2022-08-03T12:00:31;99672.81;;;31.73;53.22
24031;BME280;12240;51.142;22.486;2022-08-03T12:03:06;99715.91;;;32.51;51.93
24031;BME280;12240;51.142;22.486;2022-08-03T12:08:32;99686.28;;;33.00;50.69
24031;BME280;12240;51.142;22.486;2022-08-03T12:11:04;99705.72;;;33.85;50.48
24031;BME280;12240;51.142;22.486;2022-08-03T12:13:42;99713.28;;;34.03;51.38
24031;BME280;12240;51.142;22.486;2022-08-03T12:16:31;99682.25;;;33.17;51.18
24031;BME280;12240;51.142;22.486;2022-08-03T12:19:04;99675.88;;;32.92;51.89
24031;BME280;12240;51.142;22.486;2022-08-03T12:21:33;99703.47;;;32.87;52.87
24031;BME280;12240;51.142;22.486;2022-08-03T12:24:03;99682.03;;;32.79;53.36
24031;BME280;12240;51.142;22.486;2022-08-03T12:26:47;99709.09;;;33.35;53.17
24031;BME280;12240;51.142;22.486;2022-08-03T12:29:26;99676.91;;;33.49;52.37
24031;BME280;12240;51.142;22.486;2022-08-03T12:31:55;99705.78;;;33.61;50.55
24031;BME280;12240;51.142;22.486;2022-08-03T12:34:23;99701.41;;;33.79;49.54
24031;BME280;12240;51.142;22.486;2022-08-03T12:37:21;99653.53;;;33.18;47.27
24031;BME280;12240;51.142;22.486;2022-08-03T12:39:56;99685.59;;;32.85;48.89
24031;BME280;12240;51.142;22.486;2022-08-03T12:42:38;99657.16;;;33.13;49.52
24031;BME280;12240;51.142;22.486;2022-08-03T12:45:27;99651.47;;;32.37;48.63
24031;BME280;12240;51.142;22.486;2022-08-03T12:48:00;99678.19;;;32.47;48.68
24031;BME280;12240;51.142;22.486;2022-08-03T12:50:31;99692.66;;;33.25;47.86
24031;BME280;12240;51.142;22.486;2022-08-03T12:53:02;99649.69;;;33.84;47.81
24031;BME280;12240;51.142;22.486;2022-08-03T12:55:32;99695.34;;;34.56;46.24
24031;BME280;12240;51.142;22.486;2022-08-03T12:58:34;99642.00;;;34.69;46.96
24031;BME280;12240;51.142;22.486;2022-08-03T13:01:04;99679.50;;;35.67;46.69
24031;BME280;12240;51.142;22.486;2022-08-03T13:03:44;99682.66;;;35.74;46.36
24031;BME280;12240;51.142;22.486;2022-08-03T13:06:24;99673.41;;;35.92;44.95
24031;BME280;12240;51.142;22.486;2022-08-03T13:09:04;99665.53;;;34.85;43.82
24031;BME280;12240;51.142;22.486;2022-08-03T13:11:33;99673.91;;;35.12;44.59
24031;BME280;12240;51.142;22.486;2022-08-03T13:14:21;99664.94;;;34.56;44.31
24031;BME280;12240;51.142;22.486;2022-08-03T13:16:50;99658.97;;;34.31;44.80
24031;BME280;12240;51.142;22.486;2022-08-03T13:19:18;99619.78;;;34.74;44.86
24031;BME280;12240;51.142;22.486;2022-08-03T13:21:46;99617.91;;;35.02;46.81
24031;BME280;12240;51.142;22.486;2022-08-03T13:24:31;99662.56;;;35.55;43.76
24031;BME280;12240;51.142;22.486;2022-08-03T13:27:00;99650.34;;;35.69;44.29
24031;BME280;12240;51.142;22.486;2022-08-03T13:29:49;99564.88;;;34.81;45.61
24031;BME280;12240;51.142;22.486;2022-08-03T13:32:20;99646.75;;;35.14;45.56
24031;BME280;12240;51.142;22.486;2022-08-03T13:34:49;99646.47;;;35.57;45.33
24031;BME280;12240;51.142;22.486;2022-08-03T13:37:18;99640.41;;;35.55;44.91
24031;BME280;12240;51.142;22.486;2022-08-03T13:39:46;99645.28;;;35.85;44.98
24031;BME280;12240;51.142;22.486;2022-08-03T13:42:31;99600.38;;;35.88;43.45
24031;BME280;12240;51.142;22.486;2022-08-03T13:45:01;99603.38;;;35.37;44.75
24031;BME280;12240;51.142;22.486;2022-08-03T13:47:30;99593.81;;;35.30;43.28
24031;BME280;12240;51.142;22.486;2022-08-03T13:49:58;99638.66;;;35.59;44.01
24031;BME280;12240;51.142;22.486;2022-08-03T13:52:32;99634.88;;;36.40;41.81